createdAt,value
2022-07-25T00:00:53.915Z,42.83
2022-07-25T00:01:54.020Z,43.70
2022-07-25T00:02:53.963Z,53.42
2022-07-25T00:03:53.934Z,51.65
2022-07-25T00:04:53.993Z,42.66
2022-07-25T00:05:53.911Z,47.33
2022-07-25T00:06:53.915Z,42.33
2022-07-25T00:07:53.896Z,42.73
2022-07-25T00:08:53.890Z,42.77
2022-07-25T00:09:53.867Z,42.15
2022-07-25T00:10:53.860Z,42.88
2022-07-25T00:11:53.854Z,48.75
2022-07-25T00:12:53.911Z,42.30
2022-07-25T00:13:53.832Z,42.08
2022-07-25T00:14:53.851Z,42.50
2022-07-25T00:15:53.963Z,42.32
2022-07-25T00:16:53.821Z,42.50
2022-07-25T00:17:53.877Z,51.05
2022-07-25T00:18:53.810Z,47.41
2022-07-25T00:19:53.803Z,42.58
2022-07-25T00:20:53.815Z,49.39
2022-07-25T00:21:53.783Z,48.13
2022-07-25T00:22:53.817Z,42.95
2022-07-25T00:23:53.828Z,47.12
2022-07-25T00:24:53.811Z,42.41
2022-07-25T00:25:54.390Z,42.16
2022-07-25T00:26:53.764Z,42.52
2022-07-25T00:27:53.770Z,42.18
2022-07-25T00:28:53.727Z,42.20
2022-07-25T00:29:53.748Z,48.08
2022-07-25T00:30:53.828Z,47.37
2022-07-25T00:31:53.724Z,43.05
2022-07-25T00:32:53.696Z,42.67
2022-07-25T00:33:53.694Z,44.23
2022-07-25T00:34:53.724Z,46.18
2022-07-25T00:35:53.678Z,42.27
2022-07-25T00:36:53.684Z,47.00
2022-07-25T00:37:53.676Z,42.48
2022-07-25T00:38:53.674Z,42.44
2022-07-25T00:39:53.680Z,42.75
2022-07-25T00:40:53.669Z,42.55
2022-07-25T00:41:53.633Z,43.21
2022-07-25T00:42:53.626Z,47.87
2022-07-25T00:43:54.612Z,48.97
2022-07-25T00:44:53.611Z,45.16
2022-07-25T00:45:53.663Z,42.59
2022-07-25T00:46:53.662Z,43.15
2022-07-25T00:47:53.576Z,48.81
2022-07-25T00:48:53.654Z,43.32
2022-07-25T00:49:53.568Z,48.38
2022-07-25T00:50:53.561Z,47.72
2022-07-25T00:51:53.562Z,48.72
2022-07-25T00:52:53.572Z,48.05
2022-07-25T00:53:53.558Z,42.86
2022-07-25T00:54:54.536Z,44.80
2022-07-25T00:55:53.544Z,46.84
2022-07-25T00:56:53.519Z,43.21
2022-07-25T00:57:53.518Z,43.16
2022-07-25T00:58:53.535Z,47.74
2022-07-25T00:59:53.502Z,51.32
2022-07-25T01:00:53.575Z,52.56
2022-07-25T01:01:53.511Z,42.74
2022-07-25T01:02:53.514Z,42.51
2022-07-25T01:03:53.457Z,42.80
2022-07-25T01:04:53.470Z,42.91
2022-07-25T01:05:54.043Z,42.94
2022-07-25T01:06:54.434Z,43.02
2022-07-25T01:07:53.441Z,42.61
2022-07-25T01:08:53.421Z,42.77
2022-07-25T01:09:53.442Z,42.72
2022-07-25T01:10:53.418Z,42.99
2022-07-25T01:11:53.412Z,43.06
2022-07-25T01:12:53.389Z,48.98
2022-07-25T01:13:53.402Z,43.09
2022-07-25T01:14:53.401Z,44.99
2022-07-25T01:15:53.485Z,64.73
2022-07-25T01:16:53.365Z,64.27
2022-07-25T01:17:53.395Z,44.82
2022-07-25T01:18:53.360Z,43.46
2022-07-25T01:19:53.362Z,42.83
2022-07-25T01:20:53.388Z,42.53
2022-07-25T01:21:53.325Z,42.58
2022-07-25T01:22:53.329Z,42.89
2022-07-25T01:23:53.309Z,42.58
2022-07-25T01:24:53.321Z,47.80
2022-07-25T01:25:53.284Z,43.27
2022-07-25T01:26:53.289Z,46.95
2022-07-25T01:27:55.859Z,42.86
2022-07-25T01:28:54.290Z,43.41
2022-07-25T01:29:53.268Z,43.72
2022-07-25T01:30:53.356Z,49.20
2022-07-25T01:31:53.255Z,43.08
2022-07-25T01:32:53.267Z,47.24
2022-07-25T01:33:53.364Z,43.51
2022-07-25T01:34:53.234Z,47.60
2022-07-25T01:35:53.216Z,43.50
2022-07-25T01:36:53.228Z,49.46
2022-07-25T01:37:53.199Z,43.43
2022-07-25T01:38:54.302Z,43.33
2022-07-25T01:39:54.950Z,49.08
2022-07-25T01:40:53.194Z,48.64
2022-07-25T01:41:53.188Z,43.46
2022-07-25T01:42:53.178Z,49.80
2022-07-25T01:43:53.182Z,43.41
2022-07-25T01:44:53.160Z,43.52
2022-07-25T02:04:06.433Z,52.53
2022-07-25T02:05:08.541Z,51.40
2022-07-25T02:06:07.021Z,44.61
2022-07-25T02:07:06.037Z,48.37
2022-07-25T02:08:05.980Z,45.15
2022-07-25T02:09:05.997Z,51.75
2022-07-25T02:10:05.958Z,49.02
2022-07-25T02:11:06.012Z,44.34
2022-07-25T02:12:05.959Z,47.67
2022-07-25T02:13:06.525Z,46.76
2022-07-25T02:14:06.201Z,48.58
2022-07-25T02:15:05.935Z,43.71
2022-07-25T02:16:05.932Z,49.06
2022-07-25T02:17:05.967Z,44.52
2022-07-25T02:18:05.909Z,44.54
2022-07-25T02:19:05.889Z,49.07
2022-07-25T02:20:05.877Z,53.71
2022-07-25T02:21:05.924Z,52.45
2022-07-25T02:22:06.873Z,47.71
2022-07-25T02:23:05.850Z,49.61
2022-07-25T02:24:06.130Z,53.29
2022-07-25T02:25:05.871Z,45.15
2022-07-25T02:26:05.857Z,54.56
2022-07-25T02:27:05.811Z,45.98
2022-07-25T02:28:06.941Z,53.13
2022-07-25T02:29:05.826Z,44.19
2022-07-25T02:30:05.817Z,45.99
2022-07-25T02:31:05.927Z,55.05
2022-07-25T02:32:05.831Z,59.94
2022-07-25T02:33:05.804Z,44.54
2022-07-25T02:34:38.545Z,47.55
2022-07-25T02:35:10.833Z,48.00
2022-07-25T02:36:06.762Z,49.58
2022-07-25T02:37:09.627Z,53.95
2022-07-25T02:38:05.782Z,44.71
2022-07-25T02:39:05.748Z,49.62
2022-07-25T02:40:05.728Z,45.95
2022-07-25T02:41:05.752Z,58.85
2022-07-25T02:42:05.712Z,55.08
2022-07-25T02:43:07.497Z,50.67
2022-07-25T02:44:05.905Z,52.63
2022-07-25T02:45:05.701Z,48.18
2022-07-25T02:46:05.731Z,49.77
2022-07-25T02:47:05.810Z,44.85
2022-07-25T02:48:05.698Z,49.11
2022-07-25T02:49:05.745Z,57.81
2022-07-25T02:50:06.072Z,53.00
2022-07-25T02:51:05.677Z,55.76
2022-07-25T02:52:08.549Z,55.66
2022-07-25T02:53:05.629Z,52.38
2022-07-25T02:54:05.629Z,55.75
2022-07-25T02:55:09.545Z,55.43
2022-07-25T02:56:06.617Z,50.28
2022-07-25T02:57:05.631Z,56.45
2022-07-25T02:58:05.768Z,56.76
2022-07-25T02:59:05.738Z,54.36
2022-07-25T03:00:05.603Z,52.04
2022-07-25T03:01:05.646Z,58.18
2022-07-25T03:02:08.190Z,58.28
2022-07-25T03:03:05.596Z,61.00
2022-07-25T03:04:06.602Z,53.60
2022-07-25T03:05:05.610Z,56.49
2022-07-25T03:06:06.187Z,61.09
2022-07-25T03:07:05.557Z,54.43
2022-07-25T03:08:06.519Z,50.92
2022-07-25T03:09:06.982Z,49.90
2022-07-25T03:10:08.743Z,49.40
2022-07-25T03:11:06.594Z,60.79
2022-07-25T03:12:06.063Z,60.59
2022-07-25T03:13:05.506Z,48.76
2022-07-25T03:14:05.914Z,52.42
2022-07-25T03:15:06.136Z,49.82
2022-07-25T03:16:05.635Z,54.98
2022-07-25T03:17:05.523Z,59.38
2022-07-25T03:18:06.090Z,59.93
2022-07-25T03:19:05.457Z,59.98
2022-07-25T03:20:05.458Z,53.83
2022-07-25T03:21:05.451Z,61.61
2022-07-25T03:22:05.472Z,54.09
2022-07-25T03:23:05.498Z,56.27
2022-07-25T03:24:05.737Z,59.90
2022-07-25T03:25:05.594Z,53.44
2022-07-25T03:26:06.406Z,52.50
2022-07-25T03:27:05.425Z,64.99
2022-07-25T03:28:05.416Z,59.52
2022-07-25T03:29:05.385Z,59.87
2022-07-25T03:30:05.382Z,60.81
2022-07-25T03:31:05.495Z,61.51
2022-07-25T03:32:06.134Z,52.80
2022-07-25T03:33:05.410Z,65.52
2022-07-25T03:34:05.686Z,61.90
2022-07-25T03:35:05.344Z,63.84
2022-07-25T03:36:05.348Z,66.14
2022-07-25T03:37:05.329Z,66.10
2022-07-25T03:38:06.651Z,56.32
2022-07-25T03:39:05.740Z,55.38
2022-07-25T03:40:05.289Z,64.46
2022-07-25T03:41:05.360Z,66.86
2022-07-25T03:42:06.197Z,66.69
2022-07-25T03:43:05.292Z,60.11
2022-07-25T03:44:05.591Z,59.93
2022-07-25T03:45:05.308Z,58.36
2022-07-25T03:46:05.282Z,66.80
2022-07-25T04:02:57.466Z,68.95
2022-07-25T04:03:57.454Z,66.01
2022-07-25T04:04:58.145Z,68.33
2022-07-25T04:05:58.603Z,64.20
2022-07-25T04:06:58.578Z,66.61
2022-07-25T04:07:58.588Z,60.07
2022-07-25T04:08:58.604Z,63.55
2022-07-25T04:09:58.533Z,67.27
2022-07-25T04:10:58.622Z,60.19
2022-07-25T04:11:59.134Z,55.45
2022-07-25T04:12:58.508Z,66.81
2022-07-25T04:13:58.501Z,60.73
2022-07-25T04:14:58.515Z,54.79
2022-07-25T04:15:58.540Z,69.36
2022-07-25T04:16:58.582Z,57.16
2022-07-25T04:17:58.514Z,64.80
2022-07-25T04:18:59.227Z,69.28
2022-07-25T04:20:00.158Z,67.12
2022-07-25T04:20:59.253Z,63.39
2022-07-25T04:21:59.186Z,60.11
2022-07-25T04:22:58.508Z,67.20
2022-07-25T04:23:58.486Z,71.55
2022-07-25T04:24:58.464Z,64.49
2022-07-25T04:25:58.438Z,68.73
2022-07-25T04:27:30.322Z,69.78
2022-07-25T04:28:30.431Z,68.24
2022-07-25T04:29:31.221Z,65.83
2022-07-25T04:29:58.397Z,68.53
2022-07-25T04:30:58.398Z,68.65
2022-07-25T04:31:58.467Z,65.17
2022-07-25T04:32:59.130Z,67.76
2022-07-25T04:33:58.441Z,63.89
2022-07-25T04:34:59.803Z,67.64
2022-07-25T04:35:59.310Z,62.78
2022-07-25T04:36:58.376Z,65.06
2022-07-25T04:37:58.351Z,63.09
2022-07-25T04:38:59.197Z,59.94
2022-07-25T04:39:58.316Z,67.09
2022-07-25T04:40:59.322Z,69.49
2022-07-25T04:41:58.302Z,63.00
2022-07-25T04:42:59.842Z,68.32
2022-07-25T04:43:58.298Z,62.03
2022-07-25T04:44:58.309Z,69.05
2022-07-25T04:45:58.368Z,66.75
2022-07-25T04:46:58.297Z,64.72
2022-07-25T04:47:58.299Z,68.23
2022-07-25T04:48:58.303Z,67.65
2022-07-25T04:49:58.867Z,64.39
2022-07-25T04:50:58.360Z,62.42
2022-07-25T04:51:59.297Z,61.20
2022-07-25T04:52:58.230Z,66.86
2022-07-25T04:53:58.242Z,64.33
2022-07-25T04:54:58.215Z,64.83
2022-07-25T04:55:58.215Z,67.61
2022-07-25T04:56:58.705Z,69.45
2022-07-25T04:57:58.206Z,60.01
2022-07-25T04:59:03.141Z,64.03
2022-07-25T04:59:59.203Z,58.03
2022-07-25T05:00:58.298Z,64.09
2022-07-25T05:01:58.292Z,63.77
2022-07-25T05:02:58.165Z,65.74
2022-07-25T05:03:58.156Z,64.04
2022-07-25T05:04:58.155Z,65.46
2022-07-25T05:05:58.133Z,63.83
2022-07-25T05:06:58.155Z,66.22
2022-07-25T05:07:58.166Z,67.05
2022-07-25T05:08:58.175Z,61.15
2022-07-25T05:09:58.111Z,67.84
2022-07-25T05:10:58.111Z,65.73
2022-07-25T05:11:58.210Z,62.40
2022-07-25T05:12:58.124Z,65.84
2022-07-25T05:13:58.108Z,67.66
2022-07-25T05:14:58.091Z,58.65
2022-07-25T05:15:58.152Z,67.97
2022-07-25T05:16:58.089Z,64.84
2022-07-25T05:17:58.050Z,67.01
2022-07-25T05:18:58.046Z,70.02
2022-07-25T05:19:58.025Z,67.80
2022-07-25T05:20:58.028Z,67.71
2022-07-25T05:21:58.046Z,70.40
2022-07-25T05:22:58.046Z,63.24
2022-07-25T05:23:58.377Z,68.31
2022-07-25T05:24:58.767Z,60.39
2022-07-25T05:25:57.996Z,66.89
2022-07-25T05:26:57.990Z,62.88
2022-07-25T05:27:57.998Z,65.43
2022-07-25T05:28:58.827Z,71.45
2022-07-25T05:29:57.965Z,68.46
2022-07-25T05:30:57.950Z,65.80
2022-07-25T05:31:58.011Z,69.97
2022-07-25T05:32:57.926Z,69.78
2022-07-25T05:33:57.953Z,64.93
2022-07-25T05:34:58.021Z,69.42
2022-07-25T05:35:57.931Z,62.02
2022-07-25T05:36:57.923Z,68.09
2022-07-25T05:37:57.878Z,66.83
2022-07-25T05:38:57.885Z,71.14
2022-07-25T05:40:29.805Z,61.69
2022-07-25T05:40:57.914Z,62.07
2022-07-25T05:41:57.847Z,70.49
2022-07-25T05:43:29.747Z,68.53
2022-07-25T05:44:29.752Z,69.65
2022-07-25T05:44:57.859Z,68.21
2022-07-25T05:45:57.878Z,69.06
2022-07-25T05:46:57.880Z,64.66
2022-07-25T05:47:57.846Z,67.61
2022-07-25T05:48:57.880Z,67.67
2022-07-25T05:49:57.821Z,67.16
2022-07-25T05:50:59.511Z,65.56
2022-07-25T05:51:57.828Z,60.09
2022-07-25T05:52:58.408Z,68.47
2022-07-25T05:53:58.390Z,69.13
2022-07-25T05:54:57.760Z,68.77
2022-07-25T05:55:58.383Z,63.56
2022-07-25T05:56:57.767Z,63.69
2022-07-25T05:57:57.800Z,60.78
2022-07-25T05:58:57.771Z,64.54
2022-07-25T05:59:57.749Z,58.48
2022-07-25T06:00:57.718Z,64.70
2022-07-25T06:01:57.857Z,70.71
2022-07-25T06:02:57.922Z,65.07
2022-07-25T06:03:57.720Z,59.34
2022-07-25T06:04:57.709Z,65.09
2022-07-25T06:05:57.702Z,66.97
2022-07-25T06:06:57.694Z,63.04
2022-07-25T06:07:57.754Z,65.24
2022-07-25T06:08:58.334Z,66.50
2022-07-25T06:09:57.656Z,60.32
2022-07-25T06:10:57.751Z,64.30
2022-07-25T06:12:00.384Z,65.14
2022-07-25T06:12:57.655Z,66.58
2022-07-25T06:13:57.649Z,63.82
2022-07-25T06:14:57.696Z,63.20
2022-07-25T06:15:57.622Z,64.53
2022-07-25T06:16:59.361Z,60.33
2022-07-25T06:17:59.969Z,65.27
2022-07-25T06:18:58.522Z,63.72
2022-07-25T06:19:58.733Z,60.63
2022-07-25T06:20:58.854Z,64.66
2022-07-25T06:21:57.659Z,66.33
2022-07-25T06:22:57.585Z,61.79
2022-07-25T06:24:31.322Z,64.92
2022-07-25T06:25:30.089Z,59.26
2022-07-25T06:25:57.579Z,62.71
2022-07-25T06:26:57.700Z,65.72
2022-07-25T06:27:57.836Z,61.91
2022-07-25T06:28:57.538Z,67.29
2022-07-25T06:29:59.046Z,64.33
2022-07-25T06:30:57.570Z,66.51
2022-07-25T06:31:57.722Z,67.83
2022-07-25T06:32:57.552Z,60.51
2022-07-25T06:33:57.691Z,64.52
2022-07-25T06:34:59.061Z,62.51
2022-07-25T06:35:58.366Z,67.88
2022-07-25T06:36:57.568Z,66.07
2022-07-25T06:37:58.342Z,60.78
2022-07-25T06:38:57.641Z,61.56
2022-07-25T06:39:57.707Z,56.81
2022-07-25T06:40:57.631Z,68.14
2022-07-25T06:41:57.480Z,69.32
2022-07-25T06:42:57.522Z,65.23
2022-07-25T06:43:57.552Z,65.87
2022-07-25T06:44:57.450Z,62.20
2022-07-25T06:45:57.466Z,61.02
2022-07-25T06:46:57.535Z,57.77
2022-07-25T06:47:57.483Z,67.53
2022-07-25T06:48:57.619Z,67.47
2022-07-25T06:49:57.561Z,65.99
2022-07-25T06:50:58.050Z,67.71
2022-07-25T06:51:57.542Z,56.87
2022-07-25T06:52:57.482Z,61.69
2022-07-25T06:53:57.452Z,62.71
2022-07-25T06:54:57.513Z,52.19
2022-07-25T06:55:57.405Z,62.84
2022-07-25T06:56:57.367Z,60.98
2022-07-25T06:57:57.395Z,63.64
2022-07-25T06:58:58.044Z,63.78
2022-07-25T06:59:58.050Z,62.36
2022-07-25T07:00:58.166Z,60.34
2022-07-25T07:01:57.394Z,62.73
2022-07-25T07:02:58.231Z,61.35
2022-07-25T07:03:57.356Z,55.86
2022-07-25T07:04:57.364Z,66.84
2022-07-25T07:05:57.443Z,64.37
2022-07-25T07:06:57.320Z,66.22
2022-07-25T07:07:57.333Z,58.14
2022-07-25T07:08:57.310Z,61.48
2022-07-25T07:09:57.302Z,61.82
2022-07-25T07:10:58.080Z,66.60
2022-07-25T07:11:57.363Z,63.50
2022-07-25T07:12:57.449Z,62.33
2022-07-25T07:13:57.416Z,61.74
2022-07-25T07:14:57.800Z,67.03
2022-07-25T07:15:57.381Z,59.09
2022-07-25T07:16:57.227Z,62.20
2022-07-25T07:17:57.270Z,62.90
2022-07-25T07:18:57.407Z,64.84
2022-07-25T07:19:57.202Z,63.34
2022-07-25T07:20:57.996Z,64.52
2022-07-25T07:21:57.376Z,57.85
2022-07-25T07:22:57.270Z,60.99
2022-07-25T07:23:57.219Z,62.74
2022-07-25T07:24:57.261Z,63.51
2022-07-25T07:25:58.118Z,64.59
2022-07-25T07:26:58.166Z,63.31
2022-07-25T07:27:57.196Z,65.38
2022-07-25T07:28:57.260Z,62.38
2022-07-25T07:29:57.231Z,61.11
2022-07-25T07:31:15.571Z,62.47
2022-07-25T07:31:59.187Z,68.41
2022-07-25T07:32:57.161Z,65.82
2022-07-25T07:33:57.299Z,61.66
2022-07-25T07:34:57.173Z,66.09
2022-07-25T07:35:57.878Z,64.31
2022-07-25T07:36:57.173Z,66.64
2022-07-25T07:37:58.100Z,68.46
2022-07-25T07:38:58.303Z,69.17
2022-07-25T07:39:57.088Z,63.52
2022-07-25T07:40:57.990Z,66.21
2022-07-25T07:41:57.116Z,69.09
2022-07-25T07:42:57.099Z,65.45
2022-07-25T07:43:57.043Z,58.18
2022-07-25T07:44:57.035Z,66.42
2022-07-25T07:45:57.111Z,60.72
2022-07-25T07:46:57.181Z,66.11
2022-07-25T07:47:57.103Z,65.95
2022-07-25T07:48:57.070Z,61.13
2022-07-25T07:49:57.015Z,63.40
2022-07-25T07:50:57.036Z,63.40
2022-07-25T07:51:57.011Z,53.05
2022-07-25T07:52:57.026Z,66.38
2022-07-25T07:53:56.994Z,68.98
2022-07-25T07:54:59.428Z,63.29
2022-07-25T07:55:58.071Z,61.17
2022-07-25T07:56:57.028Z,64.03
2022-07-25T07:57:56.959Z,64.74
2022-07-25T07:58:57.025Z,67.02
2022-07-25T07:59:56.995Z,57.74
2022-07-25T08:00:56.967Z,62.90
2022-07-25T08:01:57.061Z,62.46
2022-07-25T08:02:57.069Z,62.79
2022-07-25T08:03:56.957Z,58.54
2022-07-25T08:04:56.950Z,64.79
2022-07-25T08:05:57.018Z,61.75
2022-07-25T08:06:56.942Z,60.18
2022-07-25T08:07:56.975Z,56.64
2022-07-25T08:08:56.942Z,67.85
2022-07-25T08:09:57.026Z,65.36
2022-07-25T08:10:58.948Z,65.75
2022-07-25T08:11:57.978Z,63.91
2022-07-25T08:12:56.887Z,59.18
2022-07-25T08:13:56.915Z,52.06
2022-07-25T08:14:56.875Z,65.81
2022-07-25T08:15:57.044Z,52.50
2022-07-25T08:16:56.859Z,54.70
2022-07-25T08:17:56.850Z,66.60
2022-07-25T08:18:56.851Z,63.31
2022-07-25T08:20:05.467Z,63.06
2022-07-25T08:20:58.921Z,64.81
2022-07-25T08:21:56.868Z,62.29
2022-07-25T08:22:56.945Z,61.87
2022-07-25T08:23:56.807Z,60.76
2022-07-25T08:24:57.846Z,59.96
2022-07-25T08:25:57.645Z,60.86
2022-07-25T08:26:56.801Z,63.91
2022-07-25T08:27:56.780Z,63.20
2022-07-25T08:29:17.471Z,63.42
2022-07-25T08:29:58.776Z,60.29
2022-07-25T08:30:56.814Z,63.55
2022-07-25T08:31:58.087Z,61.58
2022-07-25T08:32:56.888Z,57.58
2022-07-25T08:33:56.771Z,66.91
2022-07-25T08:35:29.100Z,65.45
2022-07-25T08:35:56.688Z,63.06
2022-07-25T08:36:56.694Z,63.49
2022-07-25T08:37:56.676Z,59.23
2022-07-25T08:38:56.685Z,60.46
2022-07-25T08:39:56.663Z,58.46
2022-07-25T08:40:56.634Z,64.28
2022-07-25T08:41:56.669Z,64.39
2022-07-25T08:42:56.719Z,62.66
2022-07-25T08:43:56.692Z,64.70
2022-07-25T08:44:56.633Z,66.08
2022-07-25T08:45:56.648Z,63.43
2022-07-25T08:46:56.659Z,63.45
2022-07-25T08:47:56.619Z,53.95
2022-07-25T08:48:56.706Z,66.84
2022-07-25T08:50:00.844Z,59.11
2022-07-25T08:50:57.586Z,64.72
2022-07-25T08:51:56.562Z,55.97
2022-07-25T08:53:23.049Z,61.54
2022-07-25T08:53:58.570Z,59.13
2022-07-25T08:54:56.529Z,58.41
2022-07-25T08:55:56.589Z,63.62
2022-07-25T08:56:56.546Z,54.96
2022-07-25T08:57:56.515Z,57.73
2022-07-25T09:00:43.089Z,59.85
2022-07-25T09:01:44.278Z,61.65
2022-07-25T09:02:44.279Z,60.54
2022-07-25T09:03:44.299Z,60.51
2022-07-25T09:04:44.176Z,63.37
2022-07-25T09:05:44.183Z,62.30
2022-07-25T09:06:44.274Z,61.79
2022-07-25T09:07:44.167Z,64.72
2022-07-25T09:08:44.182Z,60.71
2022-07-25T09:09:44.140Z,60.20
2022-07-25T09:10:44.144Z,60.71
2022-07-25T09:11:44.160Z,53.80
2022-07-25T09:12:44.143Z,61.64
2022-07-25T09:13:44.124Z,66.56
2022-07-25T09:14:44.118Z,65.91
2022-07-25T09:15:44.148Z,61.77
2022-07-25T09:16:44.387Z,58.74
2022-07-25T09:17:44.113Z,58.63
2022-07-25T09:18:44.102Z,54.91
2022-07-25T09:19:44.080Z,64.67
2022-07-25T09:20:44.092Z,63.23
2022-07-25T09:21:44.370Z,57.77
2022-07-25T09:22:44.267Z,61.05
2022-07-25T09:23:44.049Z,62.37
2022-07-25T09:24:44.056Z,63.63
2022-07-25T09:25:44.045Z,63.87
2022-07-25T09:26:44.044Z,54.81
2022-07-25T09:27:44.055Z,57.62
2022-07-25T09:28:44.031Z,64.90
2022-07-25T09:29:44.101Z,62.45
2022-07-25T09:30:44.194Z,63.79
2022-07-25T09:31:44.086Z,59.84
2022-07-25T09:32:43.997Z,64.01
2022-07-25T09:33:43.989Z,61.71
2022-07-25T09:34:45.371Z,64.44
2022-07-25T09:35:43.982Z,59.35
2022-07-25T09:36:43.986Z,55.29
2022-07-25T09:37:43.997Z,65.60
2022-07-25T09:38:44.152Z,62.19
2022-07-25T09:39:46.850Z,58.38
2022-07-25T09:40:45.826Z,61.97
2022-07-25T09:41:43.960Z,64.62
2022-07-25T09:42:43.966Z,64.87
2022-07-25T09:43:43.972Z,62.54
2022-07-25T09:44:43.929Z,63.85
2022-07-25T09:45:43.910Z,65.53
2022-07-25T09:46:43.979Z,59.09
2022-07-25T09:47:43.931Z,66.53
2022-07-25T09:48:43.993Z,64.19
2022-07-25T09:49:43.922Z,66.01
2022-07-25T09:50:43.893Z,62.63
2022-07-25T09:51:43.875Z,58.92
2022-07-25T09:52:43.862Z,60.77
2022-07-25T09:53:43.869Z,66.53
2022-07-25T09:54:43.874Z,59.14
2022-07-25T09:55:43.850Z,61.79
2022-07-25T09:56:43.856Z,62.37
2022-07-25T09:57:44.768Z,63.10
2022-07-25T09:58:43.839Z,62.04
2022-07-25T09:59:43.823Z,66.72
2022-07-25T10:00:43.864Z,63.55
2022-07-25T10:01:43.848Z,66.74
2022-07-25T10:02:43.854Z,56.80
2022-07-25T10:03:43.806Z,62.70
2022-07-25T10:04:43.810Z,64.00
2022-07-25T10:05:43.817Z,61.88
2022-07-25T10:06:43.783Z,61.93
2022-07-25T10:07:44.786Z,62.00
2022-07-25T10:08:43.781Z,61.04
2022-07-25T10:09:43.747Z,61.29
2022-07-25T10:10:43.734Z,59.98
2022-07-25T10:11:43.759Z,63.75
2022-07-25T10:12:43.774Z,63.00
2022-07-25T10:13:43.759Z,64.52
2022-07-25T10:14:43.722Z,60.73
2022-07-25T10:15:43.721Z,62.93
2022-07-25T10:16:43.777Z,63.62
2022-07-25T10:17:43.790Z,62.70
2022-07-25T10:18:43.707Z,61.05
2022-07-25T10:19:49.230Z,58.73
2022-07-25T10:20:45.675Z,63.20
2022-07-25T10:21:43.664Z,63.38
2022-07-25T10:22:58.881Z,57.96
2022-07-25T10:23:45.654Z,61.49
2022-07-25T10:24:44.300Z,56.44
2022-07-25T10:25:47.207Z,62.43
2022-07-25T10:26:45.634Z,63.17
2022-07-25T10:27:43.636Z,64.20
2022-07-25T10:28:43.638Z,64.14
2022-07-25T10:29:44.240Z,63.25
2022-07-25T10:30:43.629Z,54.88
2022-07-25T10:31:49.345Z,58.87
2022-07-25T10:32:46.303Z,55.47
2022-07-25T10:33:43.593Z,59.27
2022-07-25T10:34:43.599Z,66.55
2022-07-25T10:35:43.590Z,64.39
2022-07-25T10:36:43.767Z,66.84
2022-07-25T10:37:47.273Z,64.71
2022-07-25T10:38:45.598Z,61.69
2022-07-25T10:39:43.595Z,55.43
2022-07-25T10:40:43.536Z,61.44
2022-07-25T10:41:43.614Z,62.24
2022-07-25T10:42:43.559Z,61.14
2022-07-25T10:43:48.356Z,57.13
2022-07-25T10:44:44.658Z,65.03
2022-07-25T10:45:43.600Z,64.74
2022-07-25T10:46:43.545Z,64.00
2022-07-25T10:47:43.490Z,59.71
2022-07-25T10:48:44.235Z,63.37
2022-07-25T10:50:13.435Z,61.82
2022-07-25T10:50:55.406Z,61.34
2022-07-25T10:51:45.490Z,56.95
2022-07-25T10:52:43.535Z,62.11
2022-07-25T10:53:43.445Z,60.68
2022-07-25T10:54:43.486Z,56.90
2022-07-25T10:55:43.436Z,62.97
2022-07-25T10:56:43.469Z,55.75
2022-07-25T10:58:07.801Z,60.17
2022-07-25T10:58:45.483Z,57.95
2022-07-25T10:59:43.440Z,60.33
2022-07-25T11:00:43.432Z,62.12
2022-07-25T11:01:43.533Z,64.93
2022-07-25T11:02:43.509Z,59.90
2022-07-25T11:03:43.390Z,61.94
2022-07-25T11:04:43.387Z,60.66
2022-07-25T11:05:43.365Z,59.88
2022-07-25T11:06:43.383Z,59.15
2022-07-25T11:08:04.468Z,63.19
2022-07-25T11:08:45.435Z,55.30
2022-07-25T11:09:43.363Z,52.75
2022-07-25T11:10:43.391Z,64.80
2022-07-25T11:11:43.352Z,56.69
2022-07-25T11:12:43.335Z,63.16
2022-07-25T11:13:44.210Z,51.97
2022-07-25T11:14:46.236Z,65.59
2022-07-25T11:15:46.271Z,59.49
2022-07-25T11:16:43.386Z,64.42
2022-07-25T11:17:43.312Z,64.09
2022-07-25T11:18:43.316Z,58.90
2022-07-25T11:19:43.329Z,66.03
2022-07-25T11:20:43.294Z,65.33
2022-07-25T11:21:43.340Z,61.82
2022-07-25T11:22:43.269Z,62.88
2022-07-25T11:23:43.273Z,61.84
2022-07-25T11:24:43.849Z,63.08
2022-07-25T11:25:43.262Z,62.33
2022-07-25T11:26:43.233Z,59.33
2022-07-25T11:27:43.233Z,61.12
2022-07-25T11:28:43.233Z,61.84
2022-07-25T11:29:43.254Z,61.56
2022-07-25T11:30:43.249Z,58.37
2022-07-25T11:31:43.343Z,59.83
2022-07-25T11:32:43.295Z,58.25
2022-07-25T11:33:43.200Z,59.42
2022-07-25T11:34:43.205Z,55.94
2022-07-25T11:35:43.214Z,59.68
2022-07-25T11:36:43.176Z,61.29
2022-07-25T11:37:43.185Z,63.95
2022-07-25T11:38:43.151Z,55.47
2022-07-25T11:41:31.369Z,62.70
2022-07-25T11:42:31.338Z,62.76
2022-07-25T11:43:31.389Z,65.80
2022-07-25T11:44:31.378Z,64.61
2022-07-25T11:45:31.377Z,65.54
2022-07-25T11:46:31.391Z,64.07
2022-07-25T11:47:31.324Z,62.64
2022-07-25T11:48:31.380Z,63.86
2022-07-25T11:49:32.315Z,60.01
2022-07-25T11:50:31.333Z,57.55
2022-07-25T11:51:31.285Z,61.51
2022-07-25T11:52:31.286Z,56.09
2022-07-25T11:53:31.281Z,62.96
2022-07-25T11:54:31.282Z,54.13
2022-07-25T11:55:31.286Z,63.58
2022-07-25T11:56:46.670Z,61.48
2022-07-25T11:57:33.267Z,58.55
2022-07-25T11:58:31.333Z,66.38
2022-07-25T11:59:31.239Z,63.46
2022-07-25T12:00:31.273Z,58.81
2022-07-25T12:01:31.250Z,59.85
2022-07-25T12:02:31.404Z,64.85
2022-07-25T12:03:31.354Z,55.80
2022-07-25T12:04:31.198Z,63.12
2022-07-25T12:05:32.259Z,59.68
2022-07-25T12:06:31.237Z,60.37
2022-07-25T12:07:31.239Z,60.44
2022-07-25T12:08:31.207Z,60.52
2022-07-25T12:09:31.179Z,62.24
2022-07-25T12:10:31.178Z,55.11
2022-07-25T12:11:31.183Z,57.16
2022-07-25T12:12:31.170Z,61.33
2022-07-25T12:13:31.163Z,63.66
2022-07-25T12:14:35.253Z,63.31
2022-07-25T12:15:32.128Z,59.66
2022-07-25T12:16:31.982Z,60.86
2022-07-25T12:17:31.131Z,62.62
2022-07-25T12:18:31.168Z,58.72
2022-07-25T12:19:31.152Z,60.42
2022-07-25T12:20:31.199Z,60.50
2022-07-25T12:21:31.117Z,59.09
2022-07-25T12:22:31.115Z,60.15
2022-07-25T12:23:31.152Z,64.98
2022-07-25T12:24:31.077Z,60.27
2022-07-25T12:25:31.280Z,59.05
2022-07-25T12:26:31.141Z,60.54
2022-07-25T12:27:31.131Z,62.50
2022-07-25T12:28:31.061Z,63.97
2022-07-25T12:29:31.122Z,63.60
2022-07-25T12:30:31.075Z,60.23
2022-07-25T12:31:31.101Z,66.07
2022-07-25T12:32:31.037Z,65.64
2022-07-25T12:33:31.236Z,57.80
2022-07-25T12:34:31.010Z,63.35
2022-07-25T12:35:31.007Z,62.15
2022-07-25T12:36:31.038Z,64.56
2022-07-25T12:37:30.993Z,59.97
2022-07-25T12:38:31.022Z,59.05
2022-07-25T12:39:31.132Z,61.82
2022-07-25T12:40:31.946Z,60.30
2022-07-25T12:41:30.988Z,64.41
2022-07-25T12:42:30.977Z,61.02
2022-07-25T12:43:30.953Z,60.18
2022-07-25T12:44:31.177Z,62.14
2022-07-25T12:45:31.117Z,61.01
2022-07-25T12:46:30.940Z,63.40
2022-07-25T12:47:30.948Z,63.57
2022-07-25T12:48:30.969Z,62.95
2022-07-25T12:49:30.934Z,58.73
2022-07-25T12:50:30.929Z,61.91
2022-07-25T12:51:31.148Z,60.86
2022-07-25T12:52:31.911Z,59.36
2022-07-25T12:53:30.889Z,63.66
2022-07-25T12:54:30.880Z,62.05
2022-07-25T12:55:30.882Z,57.26
2022-07-25T12:56:30.930Z,62.46
2022-07-25T12:57:30.883Z,65.26
2022-07-25T12:58:30.971Z,59.00
2022-07-25T12:59:30.869Z,59.28
2022-07-25T13:00:31.389Z,61.41
2022-07-25T13:01:30.897Z,62.70
2022-07-25T13:02:30.958Z,53.28
2022-07-25T13:03:30.836Z,60.07
2022-07-25T13:04:31.047Z,62.93
2022-07-25T13:05:31.463Z,62.17
2022-07-25T13:06:33.409Z,64.43
2022-07-25T13:07:30.822Z,64.79
2022-07-25T13:08:30.792Z,63.72
2022-07-25T13:09:30.797Z,62.73
2022-07-25T13:10:30.889Z,62.32
2022-07-25T13:11:30.786Z,66.65
2022-07-25T13:12:30.786Z,64.67
2022-07-25T13:13:30.758Z,57.77
2022-07-25T13:14:30.782Z,63.44
2022-07-25T13:15:30.830Z,64.69
2022-07-25T13:16:30.823Z,60.39
2022-07-25T13:17:30.731Z,57.22
2022-07-25T13:18:30.756Z,63.80
2022-07-25T13:19:30.716Z,62.36
2022-07-25T13:20:30.730Z,62.82
2022-07-25T13:21:30.752Z,60.58
2022-07-25T13:22:30.746Z,63.46
2022-07-25T13:23:30.726Z,66.53
2022-07-25T13:24:30.737Z,66.38
2022-07-25T13:25:35.395Z,58.50
2022-07-25T13:26:30.769Z,65.62
2022-07-25T13:27:30.706Z,62.47
2022-07-25T13:28:30.694Z,65.06
2022-07-25T13:29:30.687Z,63.04
2022-07-25T13:30:30.760Z,59.49